BIHX weather

Hrauneyjarfoss Airport
Hrauneyjarfoss, Southern Region, Iceland

Public forecast

Using degrees Celsius for public forecast. Weather courtesy of forecast.io.

Closest aviation weather report (METAR) to Hrauneyjarfoss Airport

Report is more than 2 hours old.

Closest report is Vestmannaeyjar Airport, 53.5 nm (99.1 km) SSW. Retrieved 2020/06/06 18:00 UTC (5 hours ago):

BIVM 061800Z 35015KT CAVOK 13/M03 Q1017

Closest aviation forecast (TAF) to Hrauneyjarfoss Airport

Closest forecast is Reykjavik Airport, 69.6 nm (129.0 km) W. Retrieved 2020/06/06 21:17 UTC (2 hours ago):

TAF BIRK 061912Z 0621/0721 31012KT CAVOK TX13/0712Z TN07/0704Z BECMG 0622/0700 VRB02KT BECMG 0711/0713 19012KT SCT040 BECMG 0716/0718 -RA SCT020 BKN030